Time;durP1;ratioP1;P1;durP2;ratioP2;P2;SDS_P1;SDS_P2;PMS_P1;PMS_P2;Temp;Humidity;BMP_temperature;BMP_pressure;BME280_temperature;BME280_humidity;BME280_pressure;Samples;Min_cycle;Max_cycle;Signal;HPM_P1;HPM_P2
2024/04/24 00:01:34;;;;;;;22.75;15.60;;;;;;;;;;5322162;26;20002;-93
2024/04/24 00:04:01;;;;;;;23.83;15.55;;;;;;;;;;5317405;27;20012;-93
2024/04/24 00:09:11;;;;;;;24.02;15.63;;;;;;;;;;5298117;27;20054;-94
2024/04/24 00:11:42;;;;;;;20.80;14.88;;;;;;;;;;5255670;27;19998;-95
2024/04/24 00:14:08;;;;;;;23.08;15.75;;;;;;;;;;5253163;27;20003;-95
2024/04/24 00:16:35;;;;;;;22.70;14.95;;;;;;;;;;5309384;27;20047;-94
2024/04/24 00:19:10;;;;;;;22.17;14.77;;;;;;;;;;5310241;27;20084;-95
2024/04/24 00:21:43;;;;;;;20.95;15.65;;;;;;;;;;5282772;27;20014;-96
2024/04/24 00:24:14;;;;;;;23.08;15.60;;;;;;;;;;5275376;27;19999;-95
2024/04/24 00:26:40;;;;;;;24.23;14.98;;;;;;;;;;5275715;27;20078;-95
2024/04/24 00:29:12;;;;;;;21.52;15.05;;;;;;;;;;5276060;27;20014;-94
2024/04/24 00:31:38;;;;;;;22.80;16.10;;;;;;;;;;5275880;27;20013;-95
2024/04/24 00:34:04;;;;;;;23.77;15.32;;;;;;;;;;5275157;27;20010;-94
2024/04/24 00:36:34;;;;;;;24.13;14.57;;;;;;;;;;5297666;27;20034;-93
2024/04/24 00:39:00;;;;;;;23.75;15.48;;;;;;;;;;5308256;27;20002;-93
2024/04/24 00:41:26;;;;;;;23.63;16.15;;;;;;;;;;5308627;27;19999;-95
2024/04/24 00:43:52;;;;;;;27.23;16.75;;;;;;;;;;5296982;27;20073;-94
2024/04/24 00:46:21;;;;;;;21.33;14.77;;;;;;;;;;5274437;27;20412;-94
2024/04/24 00:48:48;;;;;;;21.95;17.08;;;;;;;;;;5275104;27;19999;-95
2024/04/24 00:51:14;;;;;;;26.02;19.20;;;;;;;;;;5274568;27;20014;-94
2024/04/24 00:53:40;;;;;;;25.15;18.80;;;;;;;;;;5274796;27;20340;-94
2024/04/24 00:56:09;;;;;;;22.23;17.98;;;;;;;;;;5300934;27;20017;-95
2024/04/24 00:59:10;;;;;;;23.58;18.13;;;;;;;;;;5308705;27;20037;-94
2024/04/24 01:01:39;;;;;;;24.92;17.30;;;;;;;;;;5290817;27;20015;-94
2024/04/24 01:04:08;;;;;;;23.92;17.58;;;;;;;;;;5274513;27;20003;-94
2024/04/24 01:06:34;;;;;;;24.67;16.33;;;;;;;;;;5274437;27;20003;-95
2024/04/24 01:09:01;;;;;;;23.83;17.00;;;;;;;;;;5274273;27;20007;-94
2024/04/24 01:11:31;;;;;;;23.60;16.10;;;;;;;;;;5274640;27;19999;-95
2024/04/24 01:13:58;;;;;;;23.40;15.82;;;;;;;;;;5247747;27;20034;-94
2024/04/24 01:16:29;;;;;;;26.50;16.83;;;;;;;;;;5274660;27;20444;-94
2024/04/24 01:19:02;;;;;;;29.58;18.02;;;;;;;;;;5274957;27;20015;-92
2024/04/24 01:22:02;;;;;;;26.30;16.77;;;;;;;;;;5275374;27;20003;-95
2024/04/24 01:24:39;;;;;;;24.10;16.30;;;;;;;;;;5274069;27;20455;-94
2024/04/24 01:27:06;;;;;;;28.20;17.50;;;;;;;;;;5274743;27;20093;-94
2024/04/24 01:29:41;;;;;;;27.83;17.15;;;;;;;;;;5274333;27;20074;-94
2024/04/24 01:32:07;;;;;;;26.02;16.35;;;;;;;;;;5274469;27;20003;-94
2024/04/24 01:34:34;;;;;;;27.77;18.80;;;;;;;;;;5247731;27;20007;-94
2024/04/24 01:37:00;;;;;;;26.73;17.65;;;;;;;;;;5275136;27;20002;-93
2024/04/24 01:39:26;;;;;;;26.20;17.15;;;;;;;;;;5275042;27;20006;-93
2024/04/24 01:41:52;;;;;;;27.25;17.80;;;;;;;;;;5274498;27;20014;-94
2024/04/24 01:44:18;;;;;;;27.15;18.67;;;;;;;;;;5274182;27;20428;-94
2024/04/24 01:46:44;;;;;;;29.88;19.13;;;;;;;;;;5354350;21;19999;-92
2024/04/24 01:49:10;;;;;;;26.00;18.15;;;;;;;;;;5300479;27;20009;-93
2024/04/24 01:51:37;;;;;;;29.52;18.55;;;;;;;;;;5286056;27;20045;-93
2024/04/24 01:54:03;;;;;;;28.00;18.38;;;;;;;;;;5286293;27;20009;-95
2024/04/24 01:56:31;;;;;;;26.25;18.38;;;;;;;;;;5286067;27;20021;-93
2024/04/24 01:58:57;;;;;;;29.05;19.48;;;;;;;;;;5285648;27;20435;-93
2024/04/24 02:01:23;;;;;;;28.23;18.20;;;;;;;;;;5284950;27;20006;-94
2024/04/24 02:03:50;;;;;;;26.67;17.73;;;;;;;;;;5272939;27;20001;-93
2024/04/24 02:06:17;;;;;;;31.13;19.95;;;;;;;;;;5285151;27;20013;-93
2024/04/24 02:08:43;;;;;;;31.73;19.75;;;;;;;;;;5285610;27;20008;-92
2024/04/24 02:11:09;;;;;;;31.05;20.33;;;;;;;;;;5286027;27;20005;-93
2024/04/24 02:13:44;;;;;;;29.75;20.02;;;;;;;;;;5286189;27;20008;-93
2024/04/24 02:16:14;;;;;;;31.08;20.73;;;;;;;;;;5262579;27;20030;-94
2024/04/24 02:19:02;;;;;;;30.83;19.90;;;;;;;;;;5252785;27;20009;-93
2024/04/24 02:21:37;;;;;;;32.63;20.35;;;;;;;;;;5255991;27;20010;-93
2024/04/24 02:24:05;;;;;;;32.60;20.27;;;;;;;;;;5280638;27;20050;-94
2024/04/24 02:26:35;;;;;;;30.15;19.65;;;;;;;;;;5253828;27;20302;-94
2024/04/24 02:29:01;;;;;;;34.28;19.92;;;;;;;;;;5251860;27;19998;-94
2024/04/24 02:31:27;;;;;;;26.60;18.65;;;;;;;;;;5251809;27;20006;-93
2024/04/24 02:33:53;;;;;;;30.40;19.15;;;;;;;;;;5252083;27;19998;-92
2024/04/24 02:36:34;;;;;;;28.05;18.73;;;;;;;;;;5251428;27;20009;-93
2024/04/24 02:39:38;;;;;;;28.10;19.15;;;;;;;;;;5251404;27;20002;-93
2024/04/24 02:42:04;;;;;;;32.50;18.10;;;;;;;;;;5251789;27;20113;-94
2024/04/24 02:44:30;;;;;;;33.15;19.10;;;;;;;;;;5250614;27;20011;-94
2024/04/24 02:46:56;;;;;;;32.13;19.33;;;;;;;;;;5276198;27;20443;-93
2024/04/24 02:49:22;;;;;;;31.70;19.52;;;;;;;;;;5285173;27;20012;-94
2024/04/24 02:51:48;;;;;;;31.20;18.70;;;;;;;;;;5286294;27;19998;-94
2024/04/24 02:54:15;;;;;;;31.15;18.73;;;;;;;;;;5285992;27;20150;-93
2024/04/24 02:56:41;;;;;;;30.10;19.13;;;;;;;;;;5286123;27;20012;-93
2024/04/24 02:59:17;;;;;;;27.58;18.20;;;;;;;;;;5286235;27;20037;-93
2024/04/24 03:01:46;;;;;;;30.90;19.13;;;;;;;;;;5265923;27;20039;-94
2024/04/24 03:04:12;;;;;;;30.73;19.27;;;;;;;;;;5252204;27;20014;-93
2024/04/24 03:06:44;;;;;;;30.50;18.42;;;;;;;;;;5251402;27;20324;-93
2024/04/24 03:09:11;;;;;;;27.08;18.10;;;;;;;;;;5251279;27;19999;-94
2024/04/24 03:11:40;;;;;;;31.40;17.88;;;;;;;;;;5251283;27;20084;-93
2024/04/24 03:14:07;;;;;;;28.60;17.30;;;;;;;;;;5250765;27;20002;-93
2024/04/24 03:16:33;;;;;;;33.70;18.02;;;;;;;;;;5251348;27;19998;-93
2024/04/24 03:18:59;;;;;;;30.05;17.50;;;;;;;;;;5252048;27;20002;-93
2024/04/24 03:21:25;;;;;;;29.40;17.35;;;;;;;;;;5251628;27;20025;-93
2024/04/24 03:23:52;;;;;;;28.27;17.67;;;;;;;;;;5251845;27;20002;-94
2024/04/24 03:26:18;;;;;;;27.65;17.58;;;;;;;;;;5251362;27;20493;-94
2024/04/24 03:28:47;;;;;;;27.58;17.58;;;;;;;;;;5314593;22;20053;-94
2024/04/24 03:31:13;;;;;;;29.92;17.85;;;;;;;;;;5291631;27;20075;-94
2024/04/24 03:36:15;;;;;;;27.60;17.42;;;;;;;;;;5884118;21;20205;-93
2024/04/24 03:41:59;;;;;;;26.50;17.70;;;;;;;;;;5315616;27;20071;-94
2024/04/24 03:47:12;;;;;;;27.80;17.95;;;;;;;;;;5315586;27;20064;-92
2024/04/24 03:49:38;;;;;;;29.83;17.25;;;;;;;;;;5285367;27;20067;-93
2024/04/24 03:52:04;;;;;;;29.13;18.60;;;;;;;;;;5284807;27;20013;-93
2024/04/24 03:54:30;;;;;;;31.33;17.73;;;;;;;;;;5285659;27;19997;-93
2024/04/24 03:57:03;;;;;;;31.58;19.13;;;;;;;;;;5283805;27;20002;-93
2024/04/24 03:59:29;;;;;;;31.75;18.38;;;;;;;;;;5285890;27;20006;-93
2024/04/24 04:01:55;;;;;;;29.77;18.05;;;;;;;;;;5286906;27;20446;-92
2024/04/24 04:04:21;;;;;;;30.48;18.13;;;;;;;;;;5288375;27;19998;-93
2024/04/24 04:06:47;;;;;;;28.95;17.70;;;;;;;;;;5310122;26;20002;-91
2024/04/24 04:09:44;;;;;;;28.88;17.40;;;;;;;;;;5253893;27;20010;-92
2024/04/24 04:12:32;;;;;;;32.05;18.05;;;;;;;;;;5252828;27;20076;-93
2024/04/24 04:14:59;;;;;;;32.13;18.88;;;;;;;;;;5254374;27;20002;-92
2024/04/24 04:17:25;;;;;;;27.70;17.38;;;;;;;;;;5254733;27;20009;-93
2024/04/24 04:23:00;;;;;;;26.63;16.80;;;;;;;;;;5285246;27;20335;-91
2024/04/24 04:25:38;;;;;;;32.35;17.98;;;;;;;;;;5255688;27;20316;-94
2024/04/24 04:28:05;;;;;;;29.05;15.93;;;;;;;;;;5286723;27;20013;-93
2024/04/24 04:30:37;;;;;;;25.25;16.35;;;;;;;;;;5289360;27;19997;-94
2024/04/24 04:33:03;;;;;;;27.80;17.33;;;;;;;;;;5286858;27;20002;-93
2024/04/24 04:35:29;;;;;;;29.20;17.98;;;;;;;;;;5288100;27;20012;-93
2024/04/24 04:37:55;;;;;;;27.23;18.58;;;;;;;;;;5281339;27;20026;-92
2024/04/24 04:40:21;;;;;;;27.48;18.40;;;;;;;;;;5284057;27;20002;-93
2024/04/24 04:42:47;;;;;;;27.10;17.05;;;;;;;;;;5281974;27;20084;-92
2024/04/24 04:45:13;;;;;;;28.13;17.70;;;;;;;;;;5283288;27;19999;-92
2024/04/24 04:47:39;;;;;;;30.13;17.48;;;;;;;;;;5284848;27;20010;-92
2024/04/24 04:50:21;;;;;;;27.17;17.48;;;;;;;;;;5288380;27;20003;-92
2024/04/24 04:52:47;;;;;;;27.90;17.83;;;;;;;;;;5291178;27;19998;-90
2024/04/24 04:55:20;;;;;;;25.50;17.63;;;;;;;;;;5288916;27;19998;-89
2024/04/24 04:57:46;;;;;;;30.15;18.33;;;;;;;;;;5292706;27;20081;-94
2024/04/24 05:00:15;;;;;;;28.48;18.02;;;;;;;;;;5283594;27;20073;-91
2024/04/24 05:03:13;;;;;;;26.63;18.13;;;;;;;;;;5283397;27;20093;-95
2024/04/24 05:08:59;;;;;;;29.27;18.35;;;;;;;;;;5297014;27;20053;-88
2024/04/24 05:11:34;;;;;;;29.48;19.00;;;;;;;;;;5268344;27;20012;-90
2024/04/24 05:17:16;;;;;;;27.88;17.77;;;;;;;;;;5279430;27;19994;-93
2024/04/24 05:19:52;;;;;;;30.70;18.08;;;;;;;;;;5293324;27;20045;-93
2024/04/24 05:25:52;;;;;;;28.80;17.35;;;;;;;;;;5607391;22;20447;-93
2024/04/24 05:31:49;;;;;;;31.75;17.50;;;;;;;;;;5180783;27;20075;-93
2024/04/24 05:34:25;;;;;;;29.20;18.90;;;;;;;;;;5181324;27;20024;-91
2024/04/24 05:43:09;;;;;;;30.83;18.17;;;;;;;;;;5086267;28;20108;-92
2024/04/24 05:45:51;;;;;;;25.10;16.33;;;;;;;;;;5108488;28;20030;-92
2024/04/24 05:55:10;;;;;;;30.27;17.58;;;;;;;;;;4652781;21;20010;-91
2024/04/24 05:57:39;;;;;;;29.42;18.05;;;;;;;;;;5263125;26;20003;-89
2024/04/24 06:00:12;;;;;;;26.08;17.75;;;;;;;;;;5242637;27;20014;-94
2024/04/24 06:03:04;;;;;;;26.13;19.38;;;;;;;;;;5213623;27;20004;-94
2024/04/24 06:05:36;;;;;;;30.52;19.13;;;;;;;;;;5198617;27;20083;-92
2024/04/24 06:08:02;;;;;;;33.13;18.83;;;;;;;;;;5214477;27;20047;-90
2024/04/24 06:10:28;;;;;;;26.80;18.77;;;;;;;;;;5246366;27;20081;-89
2024/04/24 06:16:20;;;;;;;39.30;22.40;;;;;;;;;;5257584;27;19994;-89
2024/04/24 06:24:48;;;;;;;25.45;19.10;;;;;;;;;;5311188;27;20120;-90
2024/04/24 06:27:17;;;;;;;28.55;19.52;;;;;;;;;;5284632;27;20014;-89
2024/04/24 06:30:13;;;;;;;26.77;19.58;;;;;;;;;;5284125;27;20009;-91
2024/04/24 06:32:41;;;;;;;27.27;20.08;;;;;;;;;;5163734;27;20001;-90
2024/04/24 06:35:30;;;;;;;25.08;19.90;;;;;;;;;;5183133;27;20465;-88
2024/04/24 06:37:56;;;;;;;26.65;21.30;;;;;;;;;;5054471;28;20500;-90
2024/04/24 06:47:17;;;;;;;26.33;17.53;;;;;;;;;;5018665;28;20007;-89
2024/04/24 06:50:16;;;;;;;30.95;19.85;;;;;;;;;;4995883;28;20004;-86
2024/04/24 06:52:54;;;;;;;27.23;20.42;;;;;;;;;;4999467;28;20467;-89
2024/04/24 06:55:26;;;;;;;29.58;21.58;;;;;;;;;;5019582;28;20004;-89
2024/04/24 06:57:52;;;;;;;27.23;20.42;;;;;;;;;;5019517;28;20014;-89
2024/04/24 07:00:29;;;;;;;27.10;20.85;;;;;;;;;;5084946;27;20001;-89
2024/04/24 07:03:13;;;;;;;26.02;21.15;;;;;;;;;;5112260;27;20034;-90
2024/04/24 07:08:49;;;;;;;24.10;19.38;;;;;;;;;;5018758;28;20003;-90
2024/04/24 07:11:18;;;;;;;26.02;21.08;;;;;;;;;;4996782;28;20004;-96
2024/04/24 07:13:59;;;;;;;25.27;21.10;;;;;;;;;;5026235;28;20462;-91
2024/04/24 07:16:25;;;;;;;23.40;19.85;;;;;;;;;;5128924;27;20012;-89
2024/04/24 07:18:54;;;;;;;25.50;19.35;;;;;;;;;;5174722;27;20000;-89
2024/04/24 07:21:30;;;;;;;;;;;;;;;;;;;;;
2024/04/24 07:24:05;;;;;;;24.85;21.25;;;;;;;;;;5245765;27;20010;-89
2024/04/24 07:26:31;;;;;;;25.10;19.95;;;;;;;;;;5231346;27;20019;-89
2024/04/24 07:29:07;;;;;;;29.30;21.35;;;;;;;;;;5209333;27;20044;-91
2024/04/24 07:31:39;;;;;;;23.80;20.27;;;;;;;;;;5209406;27;20004;-89
2024/04/24 07:34:06;;;;;;;28.58;20.27;;;;;;;;;;5235618;27;20002;-89
2024/04/24 07:36:36;;;;;;;25.73;18.45;;;;;;;;;;5252842;27;20009;-89
2024/04/24 07:39:02;;;;;;;25.85;19.98;;;;;;;;;;5253261;27;19995;-90
2024/04/24 07:41:31;;;;;;;28.63;18.83;;;;;;;;;;5253029;27;19998;-89
2024/04/24 07:44:00;;;;;;;26.02;21.48;;;;;;;;;;5253082;27;20013;-90
2024/04/24 07:46:29;;;;;;;25.98;21.10;;;;;;;;;;5281044;27;20049;-89
2024/04/24 07:48:55;;;;;;;26.80;19.17;;;;;;;;;;5253150;27;20003;-89
2024/04/24 07:51:30;;;;;;;24.58;18.08;;;;;;;;;;5252350;27;20431;-89
2024/04/24 07:53:57;;;;;;;27.08;19.55;;;;;;;;;;5253860;27;20013;-89
2024/04/24 07:56:23;;;;;;;26.02;19.45;;;;;;;;;;5254709;27;20003;-90
2024/04/24 07:58:49;;;;;;;26.05;18.98;;;;;;;;;;5249287;27;20014;-90
2024/04/24 08:01:27;;;;;;;29.45;20.38;;;;;;;;;;5220331;27;19995;-92
2024/04/24 08:03:54;;;;;;;25.95;18.05;;;;;;;;;;5221131;27;20014;-90
2024/04/24 08:06:20;;;;;;;31.40;18.95;;;;;;;;;;5249184;27;20003;-90
2024/04/24 08:08:55;;;;;;;25.27;17.75;;;;;;;;;;5254732;27;19927;-89
2024/04/24 08:11:46;;;;;;;24.58;16.33;;;;;;;;;;5284726;27;19998;-90
2024/04/24 08:14:12;;;;;;;21.73;16.05;;;;;;;;;;5254383;27;20072;-89
2024/04/24 08:16:38;;;;;;;24.60;18.42;;;;;;;;;;5226867;27;20002;-89
2024/04/24 08:19:05;;;;;;;27.05;18.13;;;;;;;;;;5254617;27;20009;-89
2024/04/24 08:21:31;;;;;;;24.35;17.67;;;;;;;;;;5254561;27;20343;-89
2024/04/24 08:23:57;;;;;;;22.77;17.30;;;;;;;;;;5254291;27;20009;-89
2024/04/24 08:26:29;;;;;;;24.10;17.73;;;;;;;;;;5248586;27;20014;-89
2024/04/24 08:28:58;;;;;;;22.23;15.73;;;;;;;;;;5221242;27;20022;-90
2024/04/24 08:31:25;;;;;;;22.80;16.67;;;;;;;;;;5230558;27;20006;-91
2024/04/24 08:33:51;;;;;;;23.80;16.25;;;;;;;;;;5261138;27;20014;-88
2024/04/24 08:36:43;;;;;;;22.52;16.02;;;;;;;;;;5222057;27;20014;-89
2024/04/24 08:39:14;;;;;;;23.15;15.30;;;;;;;;;;5228771;27;20006;-91
2024/04/24 08:41:47;;;;;;;24.17;15.73;;;;;;;;;;5248472;27;19994;-90
2024/04/24 08:44:14;;;;;;;20.17;15.30;;;;;;;;;;5282498;27;20006;-89
2024/04/24 08:47:03;;;;;;;22.75;15.82;;;;;;;;;;5249402;27;20003;-90
2024/04/24 08:52:24;;;;;;;20.58;14.70;;;;;;;;;;5205882;27;20006;-89
2024/04/24 08:54:57;;;;;;;21.58;14.23;;;;;;;;;;5252314;27;19994;-90
2024/04/24 08:57:28;;;;;;;20.57;14.30;;;;;;;;;;5253358;27;19999;-91
2024/04/24 08:59:59;;;;;;;17.60;14.32;;;;;;;;;;5252912;27;20702;-90
2024/04/24 09:02:38;;;;;;;20.73;16.02;;;;;;;;;;5252914;27;20002;-90
2024/04/24 09:05:07;;;;;;;20.73;15.13;;;;;;;;;;5253473;27;20006;-90
2024/04/24 09:07:36;;;;;;;19.13;16.20;;;;;;;;;;5252283;27;20021;-90
2024/04/24 09:10:05;;;;;;;21.05;16.35;;;;;;;;;;5252550;27;20014;-90
2024/04/24 09:12:59;;;;;;;20.75;17.30;;;;;;;;;;5246835;27;20082;-91
2024/04/24 09:15:28;;;;;;;;;;;;;;;;;;5223029;27;20015;-91
2024/04/24 09:17:59;;;;;;;22.98;15.50;;;;;;;;;;5218569;27;19927;-90
2024/04/24 09:23:28;;;;;;;21.90;16.88;;;;;;;;;;5256382;27;20134;-91
2024/04/24 09:25:57;;;;;;;21.77;14.90;;;;;;;;;;5253554;27;19998;-90
2024/04/24 09:28:28;;;;;;;18.60;14.85;;;;;;;;;;5255742;27;20013;-90
2024/04/24 09:31:29;;;;;;;19.63;16.25;;;;;;;;;;5284533;27;20021;-91
2024/04/24 09:34:04;;;;;;;19.60;15.48;;;;;;;;;;5196380;27;19995;-90
2024/04/24 09:36:56;;;;;;;19.35;14.57;;;;;;;;;;5289110;27;20002;-90
2024/04/24 09:39:30;;;;;;;20.85;15.90;;;;;;;;;;5227938;27;20027;-91
2024/04/24 09:42:06;;;;;;;22.35;15.48;;;;;;;;;;5211196;27;20448;-89
2024/04/24 09:44:42;;;;;;;20.23;14.60;;;;;;;;;;5221744;27;19999;-90
2024/04/24 09:47:23;;;;;;;18.77;15.98;;;;;;;;;;5223288;27;20003;-89
2024/04/24 09:49:50;;;;;;;19.27;15.93;;;;;;;;;;5247440;27;20014;-90
2024/04/24 09:52:45;;;;;;;18.38;15.13;;;;;;;;;;5219493;27;20469;-90
2024/04/24 09:55:15;;;;;;;19.33;13.93;;;;;;;;;;5219919;27;20086;-89
2024/04/24 09:57:54;;;;;;;18.20;15.75;;;;;;;;;;5219319;27;20011;-88
2024/04/24 10:00:21;;;;;;;17.40;13.93;;;;;;;;;;5220091;27;20013;-90
2024/04/24 10:02:51;;;;;;;17.42;14.63;;;;;;;;;;5218839;27;20002;-90
2024/04/24 10:05:17;;;;;;;21.15;15.85;;;;;;;;;;5218102;27;19999;-90
2024/04/24 10:10:19;;;;;;;17.50;14.48;;;;;;;;;;5361025;21;20045;-89
2024/04/24 10:16:01;;;;;;;16.08;12.90;;;;;;;;;;5789624;21;20001;-89
2024/04/24 10:21:48;;;;;;;14.13;10.60;;;;;;;;;;5316418;26;20058;-92
2024/04/24 10:29:39;;;;;;;12.98;11.02;;;;;;;;;;5281765;27;20017;-91
2024/04/24 10:32:22;;;;;;;12.60;11.13;;;;;;;;;;5245457;27;20017;-90
2024/04/24 10:38:01;;;;;;;11.77;10.40;;;;;;;;;;5247825;27;20076;-90
2024/04/24 10:40:49;;;;;;;11.85;10.35;;;;;;;;;;5247303;27;19999;-89
2024/04/24 10:43:33;;;;;;;12.20;10.48;;;;;;;;;;5185382;27;20000;-90
2024/04/24 10:46:09;;;;;;;11.20;10.05;;;;;;;;;;5182767;27;20004;-90
2024/04/24 10:49:00;;;;;;;11.65;10.27;;;;;;;;;;5174246;27;20070;-90
2024/04/24 10:54:14;;;;;;;9.98;8.98;;;;;;;;;;5243342;27;20393;-90
2024/04/24 10:56:45;;;;;;;10.57;8.45;;;;;;;;;;5215192;27;20010;-91
2024/04/24 10:59:14;;;;;;;9.57;8.60;;;;;;;;;;5215073;27;20014;-90
2024/04/24 11:05:37;;;;;;;9.63;7.55;;;;;;;;;;5177858;27;20561;-94
2024/04/24 11:19:58;;;;;;;8.90;6.88;;;;;;;;;;5696305;21;20008;-90
2024/04/24 11:22:30;;;;;;;10.15;8.38;;;;;;;;;;5275555;27;19994;-90
2024/04/24 11:28:04;;;;;;;11.25;8.65;;;;;;;;;;5245505;27;20009;-91
2024/04/24 11:42:38;;;;;;;10.40;8.23;;;;;;;;;;5137177;27;20010;-89
2024/04/24 11:45:36;;;;;;;10.85;8.73;;;;;;;;;;5243126;27;20078;-90
2024/04/24 11:50:38;;;;;;;10.20;8.75;;;;;;;;;;5279234;27;20002;-91
2024/04/24 11:53:19;;;;;;;11.55;9.65;;;;;;;;;;5280137;27;19999;-95
2024/04/24 11:58:37;;;;;;;15.25;11.23;;;;;;;;;;5344576;21;20027;-91
2024/04/24 12:03:52;;;;;;;14.07;11.02;;;;;;;;;;5353383;26;20082;-91
2024/04/24 12:06:34;;;;;;;14.95;11.20;;;;;;;;;;5316772;26;19997;-93
2024/04/24 12:09:14;;;;;;;14.85;10.88;;;;;;;;;;5350403;26;20001;-93
2024/04/24 12:11:48;;;;;;;12.52;10.52;;;;;;;;;;5315414;27;19994;-91
2024/04/24 12:14:19;;;;;;;16.25;12.43;;;;;;;;;;5329197;26;20001;-90
2024/04/24 12:16:45;;;;;;;16.10;11.82;;;;;;;;;;5318756;26;20005;-91
2024/04/24 12:19:19;;;;;;;15.32;11.68;;;;;;;;;;5318490;26;20004;-91
2024/04/24 12:31:02;;;;;;;11.73;9.85;;;;;;;;;;6029190;21;20001;-90
2024/04/24 12:33:44;;;;;;;12.35;11.07;;;;;;;;;;5355513;26;20002;-89
2024/04/24 12:36:16;;;;;;;13.30;11.05;;;;;;;;;;5355234;26;20032;-88
2024/04/24 12:38:42;;;;;;;14.18;9.90;;;;;;;;;;5355003;26;20410;-90
2024/04/24 12:41:08;;;;;;;12.30;11.00;;;;;;;;;;5354801;26;20010;-90
2024/04/24 12:43:35;;;;;;;13.20;11.73;;;;;;;;;;5354503;26;20391;-90
2024/04/24 12:46:01;;;;;;;13.10;11.25;;;;;;;;;;5385712;26;19996;-89
2024/04/24 12:48:27;;;;;;;12.43;11.18;;;;;;;;;;5354671;26;20340;-90
2024/04/24 12:50:55;;;;;;;13.63;12.32;;;;;;;;;;5354773;26;20099;-90
2024/04/24 12:53:21;;;;;;;12.80;11.50;;;;;;;;;;5354500;26;20000;-91
2024/04/24 12:56:03;;;;;;;12.77;11.60;;;;;;;;;;5355600;26;20012;-90
2024/04/24 12:58:42;;;;;;;14.75;13.52;;;;;;;;;;5386206;26;20008;-88
2024/04/24 13:01:09;;;;;;;13.65;12.35;;;;;;;;;;5354599;26;20000;-90
2024/04/24 13:04:18;;;;;;;14.15;12.70;;;;;;;;;;5384954;26;20004;-90
2024/04/24 13:06:30;;;;;;;13.82;12.25;;;;;;;;;;5312797;27;20426;-89
2024/04/24 13:08:59;;;;;;;15.88;14.23;;;;;;;;;;5378785;26;20007;-91
2024/04/24 13:11:59;;;;;;;17.33;15.48;;;;;;;;;;5353935;26;20007;-90
2024/04/24 13:14:25;;;;;;;16.58;14.73;;;;;;;;;;5356343;26;20000;-90
2024/04/24 13:16:52;;;;;;;21.40;19.63;;;;;;;;;;5386988;26;20000;-92
2024/04/24 13:19:27;;;;;;;19.55;17.83;;;;;;;;;;5355253;26;20073;-91
2024/04/24 13:22:09;;;;;;;22.00;20.20;;;;;;;;;;5354366;26;19992;-91
2024/04/24 13:24:35;;;;;;;21.52;19.88;;;;;;;;;;5354525;26;20000;-90
2024/04/24 13:27:19;;;;;;;31.27;28.98;;;;;;;;;;5354004;26;20081;-92
2024/04/24 13:29:49;;;;;;;32.45;30.05;;;;;;;;;;5353633;26;20011;-91
2024/04/24 13:32:21;;;;;;;31.25;29.15;;;;;;;;;;5316555;26;20001;-92
2024/04/24 13:34:47;;;;;;;25.55;23.70;;;;;;;;;;5313945;26;20009;-90
2024/04/24 13:37:13;;;;;;;24.02;22.17;;;;;;;;;;5313646;26;19993;-91
2024/04/24 13:39:39;;;;;;;18.38;16.88;;;;;;;;;;5314232;26;20008;-91
2024/04/24 13:42:17;;;;;;;23.95;22.05;;;;;;;;;;5312911;26;20002;-91
2024/04/24 13:44:47;;;;;;;19.25;17.75;;;;;;;;;;5313362;26;19998;-91
2024/04/24 13:47:13;;;;;;;19.08;17.50;;;;;;;;;;5313491;26;20013;-90
2024/04/24 13:49:43;;;;;;;21.17;19.58;;;;;;;;;;5313260;26;19997;-90
2024/04/24 13:52:29;;;;;;;16.45;15.00;;;;;;;;;;5313316;26;20001;-91
2024/04/24 13:54:58;;;;;;;18.48;16.95;;;;;;;;;;5313681;27;20427;-91
2024/04/24 13:57:28;;;;;;;17.70;16.25;;;;;;;;;;5315691;26;20005;-90
2024/04/24 13:59:54;;;;;;;20.35;18.67;;;;;;;;;;5314483;26;20521;-91
2024/04/24 14:02:20;;;;;;;19.98;18.38;;;;;;;;;;5313913;26;20075;-91
2024/04/24 14:04:46;;;;;;;18.85;17.15;;;;;;;;;;5329265;22;20005;-93
2024/04/24 14:07:13;;;;;;;19.05;17.17;;;;;;;;;;5313426;27;20001;-94
2024/04/24 14:09:39;;;;;;;18.73;17.05;;;;;;;;;;5313710;26;19994;-90
2024/04/24 14:12:20;;;;;;;17.63;15.93;;;;;;;;;;5290868;26;19998;-91
2024/04/24 14:14:50;;;;;;;19.30;17.55;;;;;;;;;;5280563;27;20002;-92
2024/04/24 14:17:16;;;;;;;18.52;16.85;;;;;;;;;;5293454;27;20006;-92
2024/04/24 14:19:43;;;;;;;17.58;15.93;;;;;;;;;;5314775;27;20087;-93
2024/04/24 14:22:24;;;;;;;16.63;15.13;;;;;;;;;;5294237;27;20010;-91
2024/04/24 14:27:54;;;;;;;16.13;14.52;;;;;;;;;;5280649;27;20005;-91
2024/04/24 14:33:24;;;;;;;14.80;13.38;;;;;;;;;;5304236;27;20421;-93
2024/04/24 14:35:52;;;;;;;16.75;15.00;;;;;;;;;;5314807;27;20025;-92
2024/04/24 14:38:18;;;;;;;14.98;13.38;;;;;;;;;;5311459;27;20034;-94
2024/04/24 14:40:44;;;;;;;15.57;14.10;;;;;;;;;;5312811;27;19993;-91
2024/04/24 14:43:10;;;;;;;16.52;15.00;;;;;;;;;;5311819;27;20004;-93
2024/04/24 14:45:37;;;;;;;16.30;14.70;;;;;;;;;;5290817;27;20105;-92
2024/04/24 14:48:03;;;;;;;16.83;15.13;;;;;;;;;;5290907;27;20013;-92
2024/04/24 14:53:35;;;;;;;16.25;13.52;;;;;;;;;;5212442;27;20048;-92
2024/04/24 14:56:10;;;;;;;18.02;16.20;;;;;;;;;;5185768;27;20437;-90
2024/04/24 14:58:36;;;;;;;18.13;15.82;;;;;;;;;;5265547;27;19998;-92
2024/04/24 15:01:24;;;;;;;16.17;14.57;;;;;;;;;;5311732;27;20013;-92
2024/04/24 15:03:50;;;;;;;18.10;13.88;;;;;;;;;;5320014;26;20520;-91
2024/04/24 15:06:16;;;;;;;19.00;13.63;;;;;;;;;;5319942;26;20004;-91
2024/04/24 15:08:43;;;;;;;17.38;14.05;;;;;;;;;;5322129;26;20043;-91
2024/04/24 15:11:18;;;;;;;15.35;13.80;;;;;;;;;;5319793;26;20012;-91
2024/04/24 15:13:53;;;;;;;17.48;14.18;;;;;;;;;;5318479;26;20011;-92
2024/04/24 15:16:23;;;;;;;15.82;13.35;;;;;;;;;;5289227;27;20076;-92
2024/04/24 15:18:49;;;;;;;13.88;12.35;;;;;;;;;;5285697;27;20012;-90
2024/04/24 15:21:15;;;;;;;15.40;13.27;;;;;;;;;;5283547;27;20034;-91
2024/04/24 15:23:45;;;;;;;15.93;14.32;;;;;;;;;;5283360;27;20002;-90
2024/04/24 15:26:13;;;;;;;16.10;13.45;;;;;;;;;;5285017;27;20001;-91
2024/04/24 15:29:00;;;;;;;17.17;14.05;;;;;;;;;;5313515;26;20001;-92
2024/04/24 15:34:50;;;;;;;15.82;13.57;;;;;;;;;;5314938;27;20071;-92
2024/04/24 15:37:20;;;;;;;17.58;14.25;;;;;;;;;;5282282;27;20005;-92
2024/04/24 15:42:55;;;;;;;16.23;13.23;;;;;;;;;;5320967;27;20001;-92
2024/04/24 15:48:58;;;;;;;15.57;13.68;;;;;;;;;;5397276;21;20079;-92
2024/04/24 15:51:23;;;;;;;19.00;14.88;;;;;;;;;;5347583;26;20005;-91
2024/04/24 15:53:52;;;;;;;16.77;13.82;;;;;;;;;;5317996;26;20028;-91
2024/04/24 15:56:25;;;;;;;15.73;14.02;;;;;;;;;;5338523;26;20001;-90
2024/04/24 15:58:57;;;;;;;15.98;14.32;;;;;;;;;;5328295;26;20013;-90
2024/04/24 16:01:45;;;;;;;17.50;14.00;;;;;;;;;;5351418;26;20036;-91
2024/04/24 16:04:17;;;;;;;15.77;14.07;;;;;;;;;;5322543;26;20012;-92
2024/04/24 16:06:55;;;;;;;15.65;14.05;;;;;;;;;;5322953;26;20012;-91
2024/04/24 16:09:22;;;;;;;14.93;13.27;;;;;;;;;;5321242;26;20413;-91
2024/04/24 16:11:51;;;;;;;16.88;15.15;;;;;;;;;;5319213;26;20066;-90
2024/04/24 16:14:20;;;;;;;14.13;12.73;;;;;;;;;;5320631;26;20100;-92
2024/04/24 16:16:49;;;;;;;16.75;14.95;;;;;;;;;;5320232;26;20001;-91
2024/04/24 16:19:33;;;;;;;15.88;14.27;;;;;;;;;;5319848;26;19997;-91
2024/04/24 16:25:11;;;;;;;14.77;13.27;;;;;;;;;;5405756;21;20070;-90
2024/04/24 16:27:40;;;;;;;16.23;14.40;;;;;;;;;;5354894;26;20015;-92
2024/04/24 16:30:10;;;;;;;18.90;14.68;;;;;;;;;;5354681;26;20000;-90
2024/04/24 16:33:11;;;;;;;17.30;14.77;;;;;;;;;;5354415;26;20011;-94
2024/04/24 16:35:37;;;;;;;16.05;14.43;;;;;;;;;;5353964;26;20000;-89
2024/04/24 16:38:06;;;;;;;14.80;13.30;;;;;;;;;;5354849;26;20448;-90
2024/04/24 16:40:53;;;;;;;16.20;14.55;;;;;;;;;;5384991;26;20195;-91
2024/04/24 16:43:22;;;;;;;15.32;13.35;;;;;;;;;;5334291;26;20001;-89
2024/04/24 16:45:48;;;;;;;17.13;14.15;;;;;;;;;;5292040;26;20012;-91
2024/04/24 16:48:15;;;;;;;14.38;12.68;;;;;;;;;;5323456;26;20005;-91
2024/04/24 16:50:41;;;;;;;16.33;12.35;;;;;;;;;;5354380;26;19996;-90
2024/04/24 16:53:08;;;;;;;14.55;13.02;;;;;;;;;;5354489;26;20000;-91
2024/04/24 16:55:34;;;;;;;14.68;13.13;;;;;;;;;;5354650;26;19997;-91
2024/04/24 16:58:00;;;;;;;16.65;14.05;;;;;;;;;;5327962;26;20017;-90
2024/04/24 17:00:27;;;;;;;17.27;14.02;;;;;;;;;;5319765;26;20004;-92
2024/04/24 17:02:53;;;;;;;17.83;13.73;;;;;;;;;;5334164;26;20024;-91
2024/04/24 17:05:22;;;;;;;14.23;11.75;;;;;;;;;;5319216;26;20421;-91
2024/04/24 17:07:49;;;;;;;16.05;12.88;;;;;;;;;;5351835;26;20001;-90
2024/04/24 17:10:15;;;;;;;13.93;12.52;;;;;;;;;;5321278;26;20008;-90
2024/04/24 17:12:49;;;;;;;15.23;13.07;;;;;;;;;;5322618;26;20001;-89
2024/04/24 17:15:21;;;;;;;14.00;11.68;;;;;;;;;;5321117;26;20050;-95
2024/04/24 17:17:47;;;;;;;12.27;11.15;;;;;;;;;;5323364;26;20326;-91
2024/04/24 17:20:19;;;;;;;13.13;11.10;;;;;;;;;;5326951;26;20005;-91